Flight Track Log - Related Links

Times and Time Zones

All times are in EDT time to prevent confusion due to time zone crossing. See the DAL1073 flight status page for this flight to view local times or setup timezone preferences in your user account.

Time Position Orientation Groundspeed Altitude Reporting Facility
EDT Latitude Longitude Course Direction KTS MPH feet Rate Location/Type
Tue 12:27:09 PM 44.8667 -93.1333 277° West 222 255 2,400  Level Minneapolis TRACON
Tue 12:28:09 PM 44.8667 -93.0167 90° East 297 342 4,700 1,907 Climbing Minneapolis TRACON
Tue 12:29:00 PM 44.9603 -93.7084 282° West  Level FlightAware
Tue 12:29:40 PM 44.9767 -92.9978 North 293 337 7,200  Level Minneapolis Center
Tue 12:30:00 PM 44.9849 -93.8773 282° West  Level FlightAware
Tue 12:30:42 PM 45.0417 -93.0872 316° Northwest 281 323 10,500  Level Minneapolis Center
Tue 12:31:00 PM 45.0171 -94.0430 292° West  Level FlightAware
Tue 12:31:44 PM 45.0661 -93.2011 287° West 315 362 11,900  Level Minneapolis Center
Tue 12:32:00 PM 45.0426 -94.2104 277° West  Level FlightAware
Tue 12:32:46 PM 45.0653 -93.3289 270° West 327 376 14,600  Level Minneapolis Center
Tue 12:33:48 PM 45.0689 -93.4583 272° West 332 382 16,500 1,597 Climbing Minneapolis Center
Tue 12:34:50 PM 45.0717 -93.5933 272° West 344 396 17,900 1,210 Climbing Minneapolis Center
Tue 12:35:52 PM 45.0764 -93.7733 272° West 377 434 19,000 1,355 Climbing Minneapolis Center
Tue 12:36:54 PM 45.0792 -93.9306 271° West 396 456 20,700 1,500 Climbing Minneapolis Center
Tue 12:37:56 PM 45.0811 -94.0869 271° West 400 460 22,100 1,258 Climbing Minneapolis Center
Tue 12:38:58 PM 45.0836 -94.2478 271° West 407 468 23,300 1,191 Climbing Minneapolis Center
Tue 12:40:12 PM 45.0867 -94.4089 272° West 412 474 24,800 1,620 Climbing Minneapolis Center
Tue 12:41:15 PM 45.1042 -94.6308 276° West 407 468 27,000 1,776 Climbing Minneapolis Center
Tue 12:42:17 PM 45.1189 -94.7650 279° West 400 460 28,500 1,452 Climbing Minneapolis Center
Tue 12:43:19 PM 45.1367 -94.9442 278° West 389 448 30,000 732 Climbing Minneapolis Center
Tue 12:44:20 PM 45.1464 -95.0619 277° West 383 441 30,000  Level Minneapolis Center
Tue 12:45:23 PM 45.1639 -95.2381 278° West 379 436 30,000  Level Minneapolis Center
Tue 12:46:25 PM 45.1772 -95.3858 277° West 379 436 30,000  Level Minneapolis Center
Tue 12:47:27 PM 45.1917 -95.5356 278° West 384 442 30,000  Level Minneapolis Center
Tue 12:48:29 PM 45.2050 -95.6825 277° West 378 435 30,000  Level Minneapolis Center
Tue 12:49:31 PM 45.2219 -95.8583 278° West 377 434 30,000  Level Minneapolis Center
Tue 12:50:33 PM 45.2353 -96.0047 277° West 377 434 30,000  Level Minneapolis Center
Tue 12:51:35 PM 45.2478 -96.1508 277° West 376 433 30,000  Level Minneapolis Center
Tue 12:52:38 PM 45.2600 -96.2978 277° West 377 434 30,000  Level Minneapolis Center
Tue 12:53:40 PM 45.2728 -96.4439 277° West 375 432 30,000  Level Minneapolis Center
Tue 12:54:42 PM 45.2864 -96.6189 276° West 373 429 30,000  Level Minneapolis Center
Tue 12:55:44 PM 45.2992 -96.7653 277° West 375 432 30,000  Level Minneapolis Center
Tue 12:56:46 PM 45.3114 -96.9119 277° West 376 433 30,000  Level Minneapolis Center
Tue 12:57:48 PM 45.3236 -97.0581 277° West 375 432 30,000  Level Minneapolis Center
Tue 12:58:50 PM 45.3350 -97.2078 276° West 381 438 30,000  Level Minneapolis Center
Tue 12:59:52 PM 45.3481 -97.3825 276° West 375 432 30,000  Level Minneapolis Center
Tue 01:00:54 PM 45.3594 -97.5281 276° West 373 429 30,000  Level Minneapolis Center
Tue 01:01:56 PM 45.3703 -97.6761 276° West 377 434 30,000  Level Minneapolis Center
Tue 01:02:58 PM 45.3811 -97.8233 276° West 376 433 30,000  Level Minneapolis Center
Tue 01:04:00 PM 45.3908 -97.9708 275° West 376 433 30,000  Level Minneapolis Center
Tue 01:05:02 PM 45.4019 -98.1411 275° West 376 433 30,000  Level Minneapolis Center
Tue 01:06:04 PM 45.4122 -98.2867 276° West 373 429 30,000  Level Minneapolis Center
Tue 01:07:06 PM 45.4269 -98.4311 278° West 370 426 30,000  Level Minneapolis Center
Tue 01:08:09 PM 45.4519 -98.5725 284° West 369 425 30,000  Level Minneapolis Center
Tue 01:09:11 PM 45.4753 -98.7128 283° West 367 422 30,000  Level Minneapolis Center
Tue 01:10:13 PM 45.5022 -98.8836 283° West 369 425 30,000  Level Minneapolis Center
Tue 01:11:15 PM 45.5247 -99.0261 283° West 370 426 30,000  Level Minneapolis Center
Tue 01:12:17 PM 45.5472 -99.1692 283° West 371 427 30,000  Level Minneapolis Center
Tue 01:13:19 PM 45.5692 -99.3133 282° West 373 429 30,000  Level Minneapolis Center
Tue 01:14:21 PM 45.5911 -99.4567 282° West 373 429 30,000  Level Minneapolis Center
Tue 01:15:23 PM 45.6128 -99.6003 282° West 372 428 30,000  Level Minneapolis Center
Tue 01:16:25 PM 45.6397 -99.7736 283° West 374 430 30,000  Level Minneapolis Center
Tue 01:17:27 PM 45.6614 -99.9178 282° West 374 430 30,000  Level Minneapolis Center
Tue 01:18:29 PM 45.6825 -100.0644 282° West 377 434 30,000  Level Minneapolis Center
Tue 01:19:31 PM 45.7003 -100.1822 282° West 380 437 30,000  Level Minneapolis Center
Tue 01:20:33 PM 45.7256 -100.3611 282° West 383 441 30,000  Level Minneapolis Center
Tue 01:21:36 PM 45.7511 -100.5386 282° West 383 441 30,000  Level Minneapolis Center
Tue 01:22:38 PM 45.7722 -100.6864 282° West 382 440 30,000  Level Minneapolis Center
Tue 01:23:40 PM 45.7933 -100.8347 282° West 381 438 30,000  Level Minneapolis Center
Tue 01:24:42 PM 45.8133 -100.9806 281° West 379 436 30,000  Level Minneapolis Center
Tue 01:25:44 PM 45.8333 -101.1286 281° West 378 435 30,000  Level Minneapolis Center
Tue 01:26:46 PM 45.8544 -101.2761 282° West 379 436 30,000  Level Minneapolis Center
Tue 01:27:48 PM 45.8783 -101.4550 281° West 380 437 30,000  Level Minneapolis Center
Tue 01:28:50 PM 45.8989 -101.6042 281° West 381 438 30,000  Level Minneapolis Center
Tue 01:29:52 PM 45.9183 -101.7550 281° West 383 441 30,000  Level Minneapolis Center
Tue 01:30:54 PM 45.9383 -101.9033 281° West 382 440 30,000  Level Minneapolis Center
Tue 01:31:56 PM 45.9586 -102.0517 281° West 381 438 30,000  Level Minneapolis Center
Tue 01:32:58 PM 45.9769 -102.2025 280° West 383 441 30,000  Level Minneapolis Center
Tue 01:34:00 PM 45.9997 -102.3811 280° West 380 437 30,000  Level Minneapolis Center
Tue 01:35:02 PM 46.0178 -102.5336 280° West 385 443 30,000  Level Minneapolis Center
Tue 01:36:04 PM 46.0364 -102.6867 280° West 387 445 30,000 -48 Level Minneapolis Center
Tue 01:37:06 PM 46.0569 -102.8506 280° West 389 448 29,900  Descending Minneapolis Center
Tue 01:38:09 PM 46.0744 -103.0036 279° West 389 448 30,000 48 Climbing Minneapolis Center
Tue 01:39:11 PM 46.0942 -103.1586 280° West 392 451 30,000  Level Minneapolis Center
Tue 01:39:50 PM 46.1031 -103.2525 278° West 392 451 30,000  Level Salt Center
Tue 01:40:52 PM 46.1214 -103.4117 279° West 396 456 30,000  Level Salt Center
Tue 01:41:54 PM 46.1425 -103.6081 279° West 403 464 30,000 -48 Level Salt Center
Tue 01:42:56 PM 46.1617 -103.7725 280° West 411 473 29,900  Descending Salt Center
Tue 01:43:58 PM 46.1778 -103.9328 278° West 408 470 30,000  Climbing Salt Center
Tue 01:45:00 PM 46.1958 -104.0953 279° West 409 471 29,900  Descending Salt Center
Tue 01:46:02 PM 46.2133 -104.2547 279° West 406 467 30,000 48 Climbing Salt Center
Tue 01:47:04 PM 46.2297 -104.4175 278° West 408 470 30,000  Level Salt Center
Tue 01:48:06 PM 46.2514 -104.6217 279° West 415 478 30,000  Level Salt Center
Tue 01:49:08 PM 46.2675 -104.7869 278° West 417 480 30,000  Level Salt Center
Tue 01:50:11 PM 46.2847 -104.9517 279° West 417 480 30,000  Level Salt Center
Tue 01:51:13 PM 46.3006 -105.1175 278° West 417 480 30,000  Level Salt Center
Tue 01:52:15 PM 46.3175 -105.2822 279° West 416 479 30,000  Level Salt Center
Tue 01:53:17 PM 46.3328 -105.4481 278° West 417 480 30,000  Level Salt Center
Tue 01:54:19 PM 46.3517 -105.6475 278° West 418 481 30,000  Level Salt Center
Tue 01:55:21 PM 46.3683 -105.8144 278° West 419 482 30,000  Level Salt Center
Tue 01:56:23 PM 46.3756 -105.9822 274° West 420 483 30,000  Level Salt Center
Tue 01:57:25 PM 46.3419 -106.1461 254° West 424 488 30,000  Level Salt Center
Tue 01:58:27 PM 46.3083 -106.3094 253° West 424 488 30,000  Level Salt Center
Tue 01:59:29 PM 46.2747 -106.4736 254° West 425 489 30,000  Level Salt Center
Tue 02:00:31 PM 46.2353 -106.6692 254° West 425 489 30,000  Level Salt Center
Tue 02:01:33 PM 46.2019 -106.8328 254° West 426 490 30,000  Level Salt Center
Tue 02:02:35 PM 46.1672 -106.9947 253° West 425 489 30,000  Level Salt Center
Tue 02:03:37 PM 46.1336 -107.1561 253° West 425 489 30,000  Level Salt Center
Tue 02:04:39 PM 46.0981 -107.3214 253° West 423 487 30,000  Level Salt Center
Tue 02:05:41 PM 46.0569 -107.5181 253° West 429 494 30,000  Level Salt Center
Tue 02:06:43 PM 46.0214 -107.6803 253° West 429 494 30,000  Level Salt Center
Tue 02:07:45 PM 45.9853 -107.8417 252° West 427 491 30,000  Level Salt Center
Tue 02:08:47 PM 45.9497 -108.0014 252° West 423 487 30,000  Level Salt Center
Tue 02:09:49 PM 45.9136 -108.1622 252° West 426 490 30,000  Level Salt Center
Tue 02:10:51 PM 45.8769 -108.3242 252° West 429 494 30,000  Level Salt Center
Tue 02:11:53 PM 45.8350 -108.5131 252° West 420 483 30,000  Level Salt Center
Tue 02:12:55 PM 45.8044 -108.6867 256° West 449 517 30,000  Level Salt Center
Tue 02:13:57 PM 45.7969 -108.8511 266° West 422 486 30,000  Level Salt Center
Tue 02:14:59 PM 45.7894 -109.0194 266° West 425 489 30,000  Level Salt Center
Tue 02:16:01 PM 45.7808 -109.1867 266° West 424 488 30,000  Level Salt Center
Tue 02:17:03 PM 45.7703 -109.3886 266° West 424 488 30,000  Level Salt Center
Tue 02:18:05 PM 45.7603 -109.5572 265° West 426 490 30,000  Level Salt Center
Tue 02:19:07 PM 45.7511 -109.7250 266° West 426 490 30,000  Level Salt Center
Tue 02:20:09 PM 45.7403 -109.8947 265° West 431 496 30,000  Level Salt Center
Tue 02:21:11 PM 45.7294 -110.0644 265° West 431 496 30,000  Level Salt Center
Tue 02:22:13 PM 45.7183 -110.2358 265° West 433 498 30,000  Level Salt Center
Tue 02:23:15 PM 45.7042 -110.4406 264° West 434 499 30,000  Level Salt Center
Tue 02:24:18 PM 45.6739 -110.5903 254° West 430 495 30,000  Level Salt Center
Tue 02:25:20 PM 45.6394 -110.7575 254° West 435 501 30,000  Level Salt Center
Tue 02:26:22 PM 45.6042 -110.9250 253° West 436 502 30,000  Level Salt Center
Tue 02:27:24 PM 45.5686 -111.0956 253° West 439 505 30,000  Level Salt Center
Tue 02:28:26 PM 45.5242 -111.3003 253° West 443 510 30,000  Level Salt Center
Tue 02:29:28 PM 45.4886 -111.4681 253° West 441 507 30,000  Level Salt Center
Tue 02:30:30 PM 45.4522 -111.6350 253° West 440 506 30,000  Level Salt Center
Tue 02:31:32 PM 45.4161 -111.8006 253° West 437 503 30,000  Level Salt Center
Tue 02:32:34 PM 45.3803 -111.9667 253° West 438 504 30,000  Level Salt Center
Tue 02:33:36 PM 45.3403 -112.1456 252° West 440 506 30,000  Level Salt Center
Tue 02:34:38 PM 45.3053 -112.3047 253° West 442 509 30,000  Level Salt Center
Tue 02:35:40 PM 45.2628 -112.4925 252° West 447 514 30,000  Level Salt Center
Tue 02:36:42 PM 45.2339 -112.6542 256° West 445 512 30,000  Level Salt Center
Tue 02:37:44 PM 45.2058 -112.8483 258° West 449 517 30,000  Level Salt Center
Tue 02:38:46 PM 45.1844 -113.0117 260° West 442 509 30,000  Level Salt Center
Tue 02:39:48 PM 45.1550 -113.2050 258° West 448 516 30,000  Level Salt Center
Tue 02:40:50 PM 45.1294 -113.3708 258° West 450 518 30,000  Level Salt Center
Tue 02:41:52 PM 45.1022 -113.5631 259° West 448 516 30,000  Level Salt Center
Tue 02:42:54 PM 45.0758 -113.7283 257° West 451 519 30,000  Level Salt Center
Tue 02:43:56 PM 45.0483 -113.9219 259° West 451 519 30,000  Level Salt Center
Tue 02:44:58 PM 45.0431 -114.0983 268° West 454 522 30,000  Level Salt Center
Tue 02:46:00 PM 45.0556 -114.2675 276° West 453 521 30,000  Level Salt Center
Tue 02:47:02 PM 45.0700 -114.4644 276° West 452 520 30,000  Level Salt Center
Tue 02:48:04 PM 45.0808 -114.6342 275° West 453 521 30,000  Level Salt Center
Tue 02:49:06 PM 45.0947 -114.8325 276° West 454 522 30,000  Level Salt Center
Tue 02:50:08 PM 45.1061 -115.0033 275° West 456 525 30,000  Level Salt Center
Tue 02:51:11 PM 45.1186 -115.2014 275° West 454 522 30,000  Level Salt Center
Tue 02:52:13 PM 45.1281 -115.3703 275° West 452 520 30,000  Level Salt Center
Tue 02:53:15 PM 45.1408 -115.5678 275° West 452 520 30,000  Level Salt Center
Tue 02:53:53 PM 45.1475 -115.6811 275° West 452 520 30,000  Level Seattle Center
Tue 02:54:55 PM 45.1564 -115.8508 274° West 453 521 30,000  Level Seattle Center
Tue 02:55:56 PM 45.1669 -116.0481 274° West 453 521 30,000  Level Seattle Center
Tue 02:56:57 PM 45.1758 -116.2175 274° West 453 521 30,000  Level Seattle Center
Tue 02:57:59 PM 45.1847 -116.3847 274° West 448 516 30,000  Level Seattle Center
Tue 02:59:00 PM 45.1939 -116.5811 274° West 449 517 30,000  Level Seattle Center
Tue 03:00:01 PM 45.2028 -116.7494 274° West 449 517 30,000  Level Seattle Center
Tue 03:01:03 PM 45.2108 -116.9444 273° West 446 513 30,000  Level Seattle Center
Tue 03:02:04 PM 45.2181 -117.1103 274° West 443 510 30,000  Level Seattle Center
Tue 03:03:06 PM 45.2256 -117.2778 274° West 445 512 30,000  Level Seattle Center
Tue 03:04:07 PM 45.2322 -117.4475 273° West 447 514 30,000  Level Seattle Center
Tue 03:05:08 PM 45.2403 -117.6603 273° West 450 518 30,000  Level Seattle Center
Tue 03:06:10 PM 45.2467 -117.8378 273° West 451 519 30,000  Level Seattle Center
Tue 03:07:11 PM 45.2525 -118.0144 273° West 451 519 30,000  Level Seattle Center
Tue 03:08:12 PM 45.2589 -118.1931 273° West 453 521 30,000  Level Seattle Center
Tue 03:09:14 PM 45.2631 -118.3689 272° West 450 518 30,000  Level Seattle Center
Tue 03:10:15 PM 45.2683 -118.5461 272° West 452 520 30,000  Level Seattle Center
Tue 03:11:17 PM 45.2742 -118.7250 273° West 455 524 30,000  Level Seattle Center
Tue 03:12:18 PM 45.2786 -118.9022 272° West 452 520 30,000  Level Seattle Center
Tue 03:13:19 PM 45.2847 -119.1164 272° West 456 525 30,000  Level Seattle Center
Tue 03:14:21 PM 45.2894 -119.2931 272° West 452 520 30,000  Level Seattle Center
Tue 03:15:22 PM 45.2936 -119.4700 272° West 450 518 30,000  Level Seattle Center
Tue 03:16:24 PM 45.2981 -119.6444 272° West 448 516 30,000  Level Seattle Center
Tue 03:17:25 PM 45.3008 -119.8186 271° West 447 514 30,000  Level Seattle Center
Tue 03:18:26 PM 45.3042 -119.9931 272° West 447 514 30,000 -195 Level Seattle Center
Tue 03:19:28 PM 45.3072 -120.2033 271° West 450 518 29,600 -780 Descending Seattle Center
Tue 03:20:29 PM 45.3083 -120.3733 271° West 438 504 28,400 -1,463 Descending Seattle Center
Tue 03:21:31 PM 45.3247 -120.5358 278° West 424 488 26,600 -1,902 Descending Seattle Center
Tue 03:22:32 PM 45.3497 -120.6939 283° West 416 479 24,500 -2,016 Descending Seattle Center
Tue 03:23:33 PM 45.3739 -120.8442 283° West 401 461 22,500 -1,951 Descending Seattle Center
Tue 03:24:35 PM 45.3953 -120.9897 282° West 385 443 20,500 -2,049 Descending Seattle Center
Tue 03:25:36 PM 45.4161 -121.1286 282° West 368 423 18,300 -2,269 Descending Seattle Center
Tue 03:26:34 PM 45.4450 -121.2856 285° West 359 413 16,000 -2,195 Descending Seattle Center
Tue 03:27:39 PM 45.4714 -121.4186 286° West 346 398 13,800 -2,000 Descending Seattle Center
Tue 03:28:40 PM 45.4967 -121.5436 286° West 336 387 11,800 -1,756 Descending Seattle Center
Tue 03:29:42 PM 45.5200 -121.6653 285° West 324 373 10,200 -1,062 Descending Seattle Center
Tue 03:30:50 PM 45.5339 -121.7981 279° West 273 314 9,500 -1,078 Descending Seattle Center
Tue 03:31:50 PM 45.5358 -121.9117 271° West 287 330 7,900 -1,323 Descending Seattle Center
Tue 03:32:57 PM 45.5428 -122.0386 275° West 282 325 6,700 -1,026 Descending Seattle Center
Tue 03:33:47 PM 45.5325 -122.1269 261° West 281 323 5,900 -931 Descending Seattle Center
Tue 03:34:53 PM 45.5242 -122.2439 264° West 269 310 4,900 -1,073 Descending Seattle Center
Tue 03:35:50 PM 45.5167 -122.3386 264° West 270 311 3,700 -1,228 Descending Seattle Center
Tue 03:37:00 PM 45.5303 -122.4328 282° West 194 223 2,300 -1,122 Descending Seattle Center
Tue 03:37:53 PM 45.5506 -122.4800 302° West 196 226 1,400 -885 Descending Seattle Center
Tue 03:39:02 PM 45.5744 -122.5442 298° West 150 173 500 -537 Descending Seattle Center
Tue 03:39:56 PM 45.5892 -122.5808 300° West 167 192 300 -222 Descending Seattle Center

Login

Don't have an account? Register now (free) for customized features, flight alerts, and more!